Time;durP1;ratioP1;P1;durP2;ratioP2;P2;SDS_P1;SDS_P2;PMS_P1;PMS_P2;Temp;Humidity;BMP_temperature;BMP_pressure;BME280_temperature;BME280_humidity;BME280_pressure;Samples;Min_cycle;Max_cycle;Signal;HPM_P1;HPM_P2
2022/03/12 00:01:01;;;;;;;21.40;10.43;;;4.00;40.20;;;;;;5058104;28;20035;-85
2022/03/12 00:03:27;;;;;;;18.95;9.55;;;3.90;40.40;;;;;;5075740;28;20425;-85
2022/03/12 00:05:54;;;;;;;20.85;8.73;;;3.90;40.60;;;;;;5075849;28;20074;-86
2022/03/12 00:08:40;;;;;;;19.70;9.18;;;4.00;39.50;;;;;;5075743;28;20046;-84
2022/03/12 00:11:07;;;;;;;18.83;8.73;;;3.90;39.40;;;;;;5058047;28;20032;-85
2022/03/12 00:13:33;;;;;;;19.85;9.05;;;4.10;39.50;;;;;;5075448;28;20051;-86
2022/03/12 00:15:59;;;;;;;18.90;9.02;;;4.10;39.10;;;;;;5057350;28;20025;-85
2022/03/12 00:18:30;;;;;;;18.90;8.07;;;3.80;37.40;;;;;;5058039;28;20029;-85
2022/03/12 00:20:56;;;;;;;17.70;9.30;;;3.90;38.80;;;;;;5057733;28;20032;-85
2022/03/12 00:23:23;;;;;;;18.98;8.43;;;4.00;38.40;;;;;;5075453;28;20029;-84
2022/03/12 00:25:50;;;;;;;20.02;8.95;;;4.00;38.40;;;;;;5057392;28;20032;-84
2022/03/12 00:28:16;;;;;;;19.38;8.90;;;3.90;38.30;;;;;;5057532;28;20024;-83
2022/03/12 00:30:45;;;;;;;17.00;8.25;;;3.70;38.50;;;;;;5057192;28;20066;-83
2022/03/12 00:33:12;;;;;;;18.77;8.23;;;3.50;38.20;;;;;;5075215;28;20078;-82
2022/03/12 00:35:37;;;;;;;19.13;8.82;;;3.50;38.60;;;;;;5057461;28;20087;-84
2022/03/12 00:38:03;;;;;;;19.40;8.35;;;3.60;38.90;;;;;;5074778;28;20067;-85
2022/03/12 00:40:29;;;;;;;16.48;7.88;;;3.70;38.30;;;;;;5057612;28;20021;-85
2022/03/12 00:42:55;;;;;;;14.65;7.20;;;2.90;38.90;;;;;;5075233;28;20530;-84
2022/03/12 00:45:21;;;;;;;17.65;8.90;;;3.10;39.50;;;;;;5057082;28;20024;-85
2022/03/12 00:47:49;;;;;;;16.92;8.02;;;3.50;39.50;;;;;;5057124;28;20036;-84
2022/03/12 00:50:16;;;;;;;17.00;8.00;;;3.90;38.70;;;;;;5057316;28;20047;-84
2022/03/12 00:52:42;;;;;;;19.50;8.45;;;3.90;38.20;;;;;;5057124;28;20506;-84
2022/03/12 00:55:09;;;;;;;18.00;8.27;;;3.80;38.60;;;;;;5056671;28;20032;-82
2022/03/12 00:57:35;;;;;;;17.55;8.73;;;3.10;39.00;;;;;;5056487;28;20031;-82
2022/03/12 01:00:01;;;;;;;19.90;8.82;;;2.90;39.50;;;;;;5074807;28;20020;-80
2022/03/12 01:02:26;;;;;;;17.48;8.98;;;3.00;39.50;;;;;;5056429;28;20115;-82
2022/03/12 01:04:52;;;;;;;20.08;9.07;;;3.00;39.60;;;;;;5056487;28;20150;-81
2022/03/12 01:07:18;;;;;;;21.38;10.07;;;2.90;39.70;;;;;;5056650;28;20059;-80
2022/03/12 01:09:44;;;;;;;26.15;10.35;;;2.70;39.80;;;;;;5056627;28;20424;-84
2022/03/12 01:12:10;;;;;;;19.15;8.48;;;2.90;39.80;;;;;;5056364;28;20083;-82
2022/03/12 01:14:39;;;;;;;23.70;9.82;;;2.90;40.10;;;;;;5074418;28;20058;-84
2022/03/12 01:17:06;;;;;;;18.58;8.82;;;3.00;39.60;;;;;;5056337;28;20025;-84
2022/03/12 01:21:31;;;;;;;20.23;9.15;;;1.90;41.00;;;;;;5091738;27;20583;-83
2022/03/12 01:23:57;;;;;;;20.08;8.90;;;1.80;41.80;;;;;;5090021;28;20478;-84
2022/03/12 01:26:23;;;;;;;14.35;7.22;;;2.00;41.00;;;;;;5089905;28;20035;-83
2022/03/12 01:28:49;;;;;;;16.33;7.53;;;2.40;41.20;;;;;;5089773;28;20031;-85
2022/03/12 01:31:16;;;;;;;17.88;8.15;;;2.70;40.90;;;;;;5090785;28;20021;-83
2022/03/12 01:33:42;;;;;;;17.88;8.85;;;2.60;40.80;;;;;;5089810;28;20430;-84
2022/03/12 01:36:08;;;;;;;16.52;6.75;;;2.70;40.70;;;;;;5089858;28;20542;-83
2022/03/12 01:38:45;;;;;;;13.18;6.75;;;3.00;40.30;;;;;;5089657;28;20429;-84
2022/03/12 01:41:11;;;;;;;13.93;6.72;;;3.30;39.90;;;;;;5089707;28;20032;-84
2022/03/12 01:43:37;;;;;;;13.85;6.25;;;3.50;39.90;;;;;;5090941;28;20447;-83
2022/03/12 01:46:09;;;;;;;13.50;7.25;;;3.60;39.60;;;;;;5089647;28;20066;-84
2022/03/12 01:48:36;;;;;;;15.52;6.63;;;3.50;39.60;;;;;;5089627;28;20107;-83
2022/03/12 01:51:02;;;;;;;12.27;6.18;;;3.50;39.30;;;;;;5089413;28;20032;-84
2022/03/12 01:53:28;;;;;;;16.83;6.90;;;3.50;39.40;;;;;;5089324;28;20024;-84
2022/03/12 01:55:54;;;;;;;13.60;6.00;;;3.60;39.70;;;;;;5089276;28;20090;-84
2022/03/12 01:58:21;;;;;;;14.88;6.45;;;3.70;39.30;;;;;;5089274;28;20070;-84
2022/03/12 02:00:51;;;;;;;11.52;6.05;;;3.80;39.10;;;;;;5089311;28;20433;-86
2022/03/12 02:03:26;;;;;;;14.00;6.30;;;3.70;40.10;;;;;;5090450;28;20080;-84
2022/03/12 02:05:53;;;;;;;14.98;6.65;;;3.40;39.70;;;;;;5089321;28;20027;-83
2022/03/12 02:08:19;;;;;;;13.27;6.18;;;3.30;39.90;;;;;;5089384;28;20119;-84
2022/03/12 02:10:47;;;;;;;11.63;5.95;;;3.20;39.60;;;;;;5089072;28;20115;-81
2022/03/12 02:13:13;;;;;;;13.88;6.25;;;3.10;39.90;;;;;;5089067;28;20027;-82
2022/03/12 02:15:41;;;;;;;15.75;6.28;;;2.40;41.60;;;;;;5089163;28;20024;-84
2022/03/12 02:18:07;;;;;;;10.60;5.43;;;2.50;41.70;;;;;;5089022;28;20115;-84
2022/03/12 02:20:33;;;;;;;14.50;6.63;;;2.70;41.70;;;;;;5090035;28;20051;-83
2022/03/12 02:22:59;;;;;;;13.85;6.55;;;2.70;41.40;;;;;;5089057;28;20364;-84
2022/03/12 02:25:33;;;;;;;15.13;6.60;;;2.70;41.30;;;;;;5088593;28;20036;-84
2022/03/12 02:28:00;;;;;;;12.85;6.25;;;2.90;40.80;;;;;;5088821;28;20016;-83
2022/03/12 02:30:36;;;;;;;12.07;5.93;;;2.80;40.80;;;;;;5089900;28;20016;-83
2022/03/12 02:33:02;;;;;;;13.00;6.80;;;2.90;40.10;;;;;;5075030;28;20086;-82
2022/03/12 02:35:31;;;;;;;13.02;5.95;;;2.90;40.00;;;;;;5075207;28;20029;-84
2022/03/12 02:37:58;;;;;;;14.82;6.10;;;2.70;40.70;;;;;;5076392;28;20028;-83
2022/03/12 02:40:24;;;;;;;13.23;6.05;;;3.10;40.70;;;;;;5074942;28;20472;-85
2022/03/12 02:42:54;;;;;;;13.18;6.60;;;3.30;40.40;;;;;;5076498;28;20033;-84
2022/03/12 02:45:22;;;;;;;12.48;5.93;;;3.70;40.10;;;;;;5076127;28;20028;-83
2022/03/12 02:47:48;;;;;;;14.32;6.20;;;3.20;39.70;;;;;;5075083;28;20024;-81
2022/03/12 02:50:14;;;;;;;14.68;6.00;;;3.10;40.50;;;;;;5074849;28;20059;-84
2022/03/12 02:52:42;;;;;;;12.52;6.63;;;2.90;40.80;;;;;;5074882;28;20029;-86
2022/03/12 02:55:23;;;;;;;14.85;6.85;;;2.80;41.20;;;;;;5075866;28;20028;-84
2022/03/12 02:57:50;;;;;;;13.23;6.13;;;2.90;41.90;;;;;;5074671;28;20017;-84
2022/03/12 03:00:17;;;;;;;11.65;5.70;;;3.10;41.90;;;;;;5074317;28;20032;-83
2022/03/12 03:02:47;;;;;;;14.60;6.20;;;3.10;42.00;;;;;;5074870;28;20021;-84
2022/03/12 03:08:05;;;;;;;17.08;6.63;;;2.90;41.60;;;;;;5076104;28;20029;-84
2022/03/12 03:10:39;;;;;;;12.15;5.65;;;2.90;42.20;;;;;;5074374;28;20089;-84
2022/03/12 03:13:17;;;;;;;15.55;6.95;;;3.10;42.60;;;;;;5074340;28;20027;-84
2022/03/12 03:16:10;;;;;;;14.35;6.88;;;3.30;42.20;;;;;;5075342;28;20031;-84
2022/03/12 03:18:39;;;;;;;11.30;5.90;;;3.40;42.00;;;;;;5074411;28;20032;-83
2022/03/12 03:21:10;;;;;;;12.13;6.15;;;3.50;41.70;;;;;;5075250;28;20060;-85
2022/03/12 03:23:36;;;;;;;15.85;6.07;;;3.30;41.70;;;;;;5075901;28;20017;-84
2022/03/12 03:26:03;;;;;;;12.60;5.90;;;3.30;41.30;;;;;;5074385;28;20037;-84
2022/03/12 03:28:29;;;;;;;14.27;6.38;;;3.40;40.90;;;;;;5075105;28;20048;-85
2022/03/12 03:30:55;;;;;;;14.15;6.28;;;3.50;40.80;;;;;;5074192;28;20025;-83
2022/03/12 03:33:23;;;;;;;12.15;5.93;;;3.30;40.60;;;;;;5074147;28;20089;-84
2022/03/12 03:35:50;;;;;;;11.60;5.88;;;3.30;40.80;;;;;;5074016;28;20047;-83
2022/03/12 03:38:17;;;;;;;16.55;6.53;;;3.40;40.80;;;;;;5073836;28;20035;-85
2022/03/12 03:40:44;;;;;;;14.38;6.25;;;3.50;40.30;;;;;;5074003;28;20028;-85
2022/03/12 03:43:15;;;;;;;12.05;6.13;;;3.20;40.60;;;;;;5074301;28;20047;-85
2022/03/12 03:45:44;;;;;;;13.82;6.47;;;3.20;41.20;;;;;;5074977;28;20052;-84
2022/03/12 03:48:15;;;;;;;11.52;6.28;;;3.00;41.30;;;;;;5075023;28;20066;-85
2022/03/12 03:50:42;;;;;;;14.07;6.35;;;3.10;41.20;;;;;;5073574;28;20039;-85
2022/03/12 03:53:11;;;;;;;13.63;6.05;;;2.80;41.10;;;;;;5073861;28;20016;-84
2022/03/12 03:55:37;;;;;;;15.20;6.75;;;2.40;42.10;;;;;;5073693;28;20033;-83
2022/03/12 03:58:03;;;;;;;13.52;5.75;;;2.40;42.60;;;;;;5074400;28;20024;-80
2022/03/12 04:00:31;;;;;;;14.02;6.57;;;2.70;42.30;;;;;;5074264;28;20120;-82
2022/03/12 04:03:02;;;;;;;14.27;6.53;;;2.90;42.60;;;;;;5074534;28;20524;-86
2022/03/12 04:05:34;;;;;;;15.52;6.32;;;3.10;41.70;;;;;;5074230;28;20082;-83
2022/03/12 04:08:00;;;;;;;12.27;6.15;;;3.10;41.50;;;;;;5073486;28;20025;-84
2022/03/12 04:10:27;;;;;;;12.80;6.25;;;2.60;42.20;;;;;;5074515;28;20017;-85
2022/03/12 04:12:54;;;;;;;14.40;6.28;;;2.40;42.50;;;;;;5073355;28;20028;-85
2022/03/12 04:15:21;;;;;;;12.50;6.13;;;2.20;42.90;;;;;;5073384;28;20025;-84
2022/03/12 04:17:51;;;;;;;12.23;5.95;;;2.20;43.10;;;;;;5073350;28;20383;-85
2022/03/12 04:20:20;;;;;;;12.93;6.15;;;2.70;43.00;;;;;;5073170;28;20048;-83
2022/03/12 04:22:51;;;;;;;13.68;6.38;;;2.90;42.80;;;;;;5074408;28;20024;-84
2022/03/12 04:25:18;;;;;;;11.48;6.45;;;2.80;42.40;;;;;;5073174;28;20060;-84
2022/03/12 04:27:44;;;;;;;15.73;6.63;;;2.70;42.10;;;;;;5074138;28;20020;-84
2022/03/12 04:30:18;;;;;;;14.15;6.13;;;2.70;42.20;;;;;;5073153;28;20111;-86
2022/03/12 04:32:44;;;;;;;12.32;5.88;;;2.90;42.00;;;;;;5072993;28;20119;-85
2022/03/12 04:35:10;;;;;;;17.65;7.55;;;2.90;41.40;;;;;;5074048;28;20111;-84
2022/03/12 04:37:37;;;;;;;16.83;6.63;;;3.00;41.20;;;;;;5074073;28;20096;-85
2022/03/12 04:40:12;;;;;;;11.45;5.63;;;2.90;41.20;;;;;;5072661;28;20028;-83
2022/03/12 04:42:41;;;;;;;11.48;5.43;;;2.90;41.40;;;;;;5072741;28;20024;-84
2022/03/12 04:45:08;;;;;;;13.38;6.35;;;2.90;41.40;;;;;;5072901;28;20475;-83
2022/03/12 04:47:34;;;;;;;13.50;6.80;;;2.90;41.60;;;;;;5072168;28;20024;-84
2022/03/12 04:50:00;;;;;;;12.55;6.22;;;2.80;42.30;;;;;;5073952;28;20074;-82
2022/03/12 04:52:25;;;;;;;11.48;6.13;;;2.80;41.50;;;;;;5073822;28;20025;-84
2022/03/12 04:54:51;;;;;;;13.57;5.65;;;2.80;41.90;;;;;;5072277;28;20119;-84
2022/03/12 04:57:19;;;;;;;14.10;6.65;;;2.90;41.90;;;;;;5072673;28;20035;-84
2022/03/12 04:59:45;;;;;;;12.80;6.00;;;2.70;41.90;;;;;;5073132;28;20055;-85
2022/03/12 05:02:13;;;;;;;11.00;5.97;;;2.60;41.90;;;;;;5072735;28;20025;-83
2022/03/12 05:04:40;;;;;;;11.95;6.25;;;2.40;42.30;;;;;;5072645;28;20048;-84
2022/03/12 05:07:14;;;;;;;10.40;5.60;;;2.30;42.80;;;;;;5072645;28;20035;-85
2022/03/12 05:09:40;;;;;;;12.68;6.25;;;2.50;42.70;;;;;;5072527;28;20078;-84
2022/03/12 05:12:08;;;;;;;10.73;5.43;;;2.60;42.30;;;;;;5073530;28;20025;-85
2022/03/12 05:14:36;;;;;;;15.98;6.65;;;2.40;42.20;;;;;;5073477;28;20028;-83
2022/03/12 05:17:08;;;;;;;14.70;6.25;;;2.40;42.80;;;;;;5073336;28;20025;-84
2022/03/12 05:19:35;;;;;;;14.25;6.10;;;2.40;43.10;;;;;;5072100;28;20071;-85
2022/03/12 05:22:02;;;;;;;14.05;5.63;;;2.50;43.20;;;;;;5072447;28;20206;-84
2022/03/12 05:24:28;;;;;;;11.57;5.38;;;2.80;43.70;;;;;;5072271;28;20047;-84
2022/03/12 05:26:54;;;;;;;15.43;5.80;;;3.00;43.00;;;;;;5072496;28;20394;-84
2022/03/12 05:29:22;;;;;;;12.90;5.97;;;3.00;42.90;;;;;;5073491;28;20478;-84
2022/03/12 05:31:52;;;;;;;12.07;5.82;;;3.00;42.70;;;;;;5072272;28;20021;-83
2022/03/12 05:34:21;;;;;;;14.02;7.60;;;3.30;42.70;;;;;;5072431;28;20087;-81
2022/03/12 05:36:47;;;;;;;28.45;8.95;;;3.50;42.20;;;;;;5072151;28;20025;-84
2022/03/12 05:39:13;;;;;;;21.63;9.25;;;3.40;42.10;;;;;;5073142;28;20107;-82
2022/03/12 05:41:40;;;;;;;48.03;16.73;;;3.50;41.80;;;;;;5073308;28;20108;-85
2022/03/12 05:44:07;;;;;;;91.18;29.50;;;3.60;40.80;;;;;;5072111;28;20074;-85
2022/03/12 05:46:32;;;;;;;68.72;23.55;;;3.80;40.80;;;;;;5071981;28;20028;-83
2022/03/12 05:48:58;;;;;;;49.28;17.65;;;3.90;40.80;;;;;;5072419;28;20032;-84
2022/03/12 05:51:24;;;;;;;25.27;9.88;;;4.00;40.50;;;;;;5071834;28;20141;-84
2022/03/12 05:53:50;;;;;;;14.15;6.20;;;4.20;39.70;;;;;;5071895;28;20078;-84
2022/03/12 05:56:16;;;;;;;13.05;6.20;;;4.30;38.50;;;;;;5072078;28;20028;-85
2022/03/12 05:58:41;;;;;;;15.38;6.43;;;4.40;38.50;;;;;;5073182;28;20047;-84
2022/03/12 06:01:07;;;;;;;17.60;7.65;;;4.40;38.30;;;;;;5072113;28;20049;-84
2022/03/12 06:03:33;;;;;;;39.92;13.80;;;4.40;38.90;;;;;;5073333;28;20020;-81
2022/03/12 06:05:59;;;;;;;28.75;11.70;;;4.50;38.70;;;;;;5071914;28;20020;-83
2022/03/12 06:08:28;;;;;;;30.80;13.05;;;4.60;38.50;;;;;;5075740;28;20463;-84
2022/03/12 06:10:56;;;;;;;24.20;11.10;;;4.80;38.40;;;;;;5075545;28;20020;-84
2022/03/12 06:13:28;;;;;;;13.25;6.60;;;4.80;38.20;;;;;;5075414;28;20016;-83
2022/03/12 06:15:58;;;;;;;13.23;7.45;;;4.70;39.30;;;;;;5075402;28;20032;-82
2022/03/12 06:18:34;;;;;;;11.90;5.97;;;4.60;39.50;;;;;;5075669;28;20112;-84
2022/03/12 06:21:01;;;;;;;13.43;6.03;;;4.70;39.30;;;;;;5075547;28;20052;-84
2022/03/12 06:23:28;;;;;;;11.57;6.00;;;4.60;39.00;;;;;;5075448;28;20024;-85
2022/03/12 06:25:54;;;;;;;12.18;5.55;;;4.70;39.40;;;;;;5075658;28;20491;-84
2022/03/12 06:28:21;;;;;;;11.80;5.70;;;4.90;39.00;;;;;;5075444;28;20028;-83
2022/03/12 06:30:47;;;;;;;13.02;6.78;;;5.00;38.50;;;;;;5075192;28;20024;-83
2022/03/12 06:33:18;;;;;;;13.15;5.70;;;5.00;38.50;;;;;;5075162;28;20020;-82
2022/03/12 06:35:46;;;;;;;11.77;5.70;;;5.20;38.20;;;;;;5075182;28;20032;-83
2022/03/12 06:38:12;;;;;;;14.20;6.00;;;5.40;38.30;;;;;;5075153;28;20028;-81
2022/03/12 06:40:38;;;;;;;11.32;5.70;;;5.70;37.50;;;;;;5076214;28;20487;-82
2022/03/12 06:43:09;;;;;;;12.43;5.85;;;5.70;37.20;;;;;;5074613;28;20070;-81
2022/03/12 06:45:35;;;;;;;13.25;5.72;;;5.80;37.10;;;;;;5074749;28;20060;-82
2022/03/12 06:48:01;;;;;;;11.48;6.10;;;5.90;36.90;;;;;;5074905;28;20128;-83
2022/03/12 06:50:32;;;;;;;17.25;9.20;;;5.70;37.10;;;;;;5074983;28;20024;-82
2022/03/12 06:52:58;;;;;;;15.02;7.93;;;5.90;36.50;;;;;;5075614;28;20021;-82
2022/03/12 06:55:28;;;;;;;13.32;6.70;;;5.90;35.90;;;;;;5074728;28;20077;-81
2022/03/12 06:57:54;;;;;;;12.35;6.30;;;6.10;35.70;;;;;;5074640;28;20028;-82
2022/03/12 07:00:31;;;;;;;16.00;6.75;;;6.30;35.40;;;;;;5074428;28;20041;-82
2022/03/12 07:02:57;;;;;;;13.65;6.00;;;6.60;34.40;;;;;;5075869;28;20021;-82
2022/03/12 07:05:24;;;;;;;14.70;6.78;;;6.80;34.70;;;;;;5075437;28;20059;-81
2022/03/12 07:07:50;;;;;;;10.80;6.05;;;6.70;33.50;;;;;;5074551;28;20114;-82
2022/03/12 07:10:17;;;;;;;14.82;7.07;;;6.80;34.10;;;;;;5075704;28;20020;-81
2022/03/12 07:12:44;;;;;;;15.90;7.28;;;6.70;34.10;;;;;;5075497;28;20162;-81
2022/03/12 07:15:11;;;;;;;14.43;7.45;;;6.80;33.80;;;;;;5074319;28;20032;-81
2022/03/12 07:17:38;;;;;;;14.73;7.18;;;7.00;33.60;;;;;;5075227;28;20487;-83
2022/03/12 07:20:05;;;;;;;28.08;8.65;;;7.20;34.20;;;;;;5073875;28;20052;-81
2022/03/12 07:22:32;;;;;;;16.70;6.20;;;7.30;33.30;;;;;;5075298;28;20111;-79
2022/03/12 07:24:58;;;;;;;12.13;6.07;;;6.90;34.50;;;;;;5076582;28;20032;-83
2022/03/12 07:27:25;;;;;;;10.77;5.30;;;6.90;34.70;;;;;;5074314;28;20051;-82
2022/03/12 07:29:51;;;;;;;11.60;6.00;;;7.00;33.60;;;;;;5073987;28;20025;-82
2022/03/12 07:32:17;;;;;;;11.07;5.50;;;7.40;33.20;;;;;;5076743;28;20024;-83
2022/03/12 07:34:43;;;;;;;12.43;5.32;;;7.40;31.90;;;;;;5094324;28;20020;-81
2022/03/12 07:37:11;;;;;;;11.00;5.55;;;7.30;32.70;;;;;;5094599;28;20028;-80
2022/03/12 07:39:38;;;;;;;13.65;6.82;;;7.10;33.60;;;;;;5095352;28;20023;-81
2022/03/12 07:42:04;;;;;;;15.88;7.05;;;7.30;33.30;;;;;;5095324;28;20028;-81
2022/03/12 07:44:30;;;;;;;13.98;6.22;;;7.60;33.90;;;;;;5094110;28;20028;-81
2022/03/12 07:46:57;;;;;;;9.70;4.95;;;8.20;33.00;;;;;;5094180;28;20363;-81
2022/03/12 07:49:23;;;;;;;8.65;4.78;;;8.20;32.50;;;;;;5094120;28;20020;-81
2022/03/12 07:51:52;;;;;;;12.27;5.40;;;7.30;32.40;;;;;;5094080;28;20475;-81
2022/03/12 07:54:18;;;;;;;9.52;5.35;;;6.90;33.00;;;;;;5087737;28;20482;-80
2022/03/12 07:56:44;;;;;;;11.82;5.15;;;6.90;34.10;;;;;;5074723;28;20051;-81
2022/03/12 07:59:11;;;;;;;11.63;6.20;;;7.30;33.50;;;;;;5073250;28;20020;-80
2022/03/12 08:01:37;;;;;;;13.30;5.82;;;8.40;33.30;;;;;;5074495;28;20040;-80
2022/03/12 08:04:03;;;;;;;11.02;5.65;;;10.30;31.20;;;;;;5074435;28;20378;-80
2022/03/12 08:06:30;;;;;;;12.13;6.75;;;12.20;30.20;;;;;;5074022;28;20033;-80
2022/03/12 08:08:57;;;;;;;10.75;5.13;;;13.50;30.00;;;;;;5073082;28;20028;-80
2022/03/12 08:11:29;;;;;;;9.80;5.40;;;15.40;29.10;;;;;;5073967;28;20537;-82
2022/03/12 08:14:00;;;;;;;12.70;5.53;;;16.40;28.40;;;;;;5074004;28;20060;-79
2022/03/12 08:16:26;;;;;;;9.63;5.70;;;15.40;28.20;;;;;;5072812;28;20024;-79
2022/03/12 08:18:51;;;;;;;10.68;5.50;;;13.20;29.20;;;;;;5072728;28;20024;-80
2022/03/12 08:21:17;;;;;;;31.00;6.28;;;12.50;29.70;;;;;;5072000;28;20053;-80
2022/03/12 08:23:43;;;;;;;16.25;5.85;;;13.20;30.00;;;;;;5072403;28;20151;-78
2022/03/12 08:26:09;;;;;;;13.45;6.60;;;14.20;29.20;;;;;;5072407;28;20028;-78
2022/03/12 08:28:35;;;;;;;15.05;8.38;;;15.00;29.10;;;;;;5072084;28;20456;-78
2022/03/12 08:31:02;;;;;;;11.07;5.90;;;14.90;28.90;;;;;;5072945;28;20486;-77
2022/03/12 08:33:28;;;;;;;17.50;8.27;;;15.10;28.80;;;;;;5072980;28;20025;-78
2022/03/12 08:35:56;;;;;;;10.27;5.47;;;15.30;29.00;;;;;;5072710;28;20017;-76
2022/03/12 08:38:22;;;;;;;9.48;5.32;;;15.50;28.00;;;;;;5072578;28;20122;-80
2022/03/12 08:40:48;;;;;;;11.27;5.75;;;14.90;28.90;;;;;;5071136;28;20395;-79
2022/03/12 08:43:13;;;;;;;8.98;5.13;;;15.00;28.60;;;;;;5071528;28;20021;-81
2022/03/12 08:45:39;;;;;;;13.63;6.00;;;13.90;29.20;;;;;;5072835;28;20052;-79
2022/03/12 08:48:05;;;;;;;11.23;5.35;;;14.80;29.10;;;;;;5073034;28;20031;-78
2022/03/12 08:50:32;;;;;;;9.35;5.35;;;14.30;29.10;;;;;;5073017;28;20508;-78
2022/03/12 08:52:58;;;;;;;8.73;5.60;;;14.10;28.60;;;;;;5071941;28;20029;-78
2022/03/12 08:55:24;;;;;;;15.10;7.93;;;14.30;29.30;;;;;;5071627;28;20040;-77
2022/03/12 08:57:51;;;;;;;12.23;7.18;;;15.90;29.10;;;;;;5072212;28;20020;-78
2022/03/12 09:00:19;;;;;;;11.35;6.32;;;16.90;28.40;;;;;;5071743;28;20024;-78
2022/03/12 09:02:46;;;;;;;13.05;6.93;;;17.60;28.30;;;;;;5071612;28;20453;-78
2022/03/12 09:05:14;;;;;;;9.48;5.07;;;18.40;27.60;;;;;;5073366;28;20012;-78
2022/03/12 09:07:41;;;;;;;10.15;6.18;;;16.40;27.80;;;;;;5071845;28;20044;-78
2022/03/12 09:10:13;;;;;;;12.98;6.13;;;16.40;28.90;;;;;;5072126;28;20087;-80
2022/03/12 09:12:40;;;;;;;10.07;5.30;;;16.70;27.90;;;;;;5073262;28;20021;-79
2022/03/12 09:15:07;;;;;;;10.88;5.70;;;15.40;28.30;;;;;;5071891;28;20021;-79
2022/03/12 09:17:34;;;;;;;11.55;5.55;;;16.20;28.60;;;;;;5071726;28;20360;-79
2022/03/12 09:19:59;;;;;;;9.32;4.80;;;17.80;27.20;;;;;;5072816;28;20048;-81
2022/03/12 09:22:25;;;;;;;11.95;4.43;;;18.00;27.10;;;;;;5071754;28;20040;-79
2022/03/12 09:24:51;;;;;;;11.43;5.32;;;17.20;27.30;;;;;;5073181;28;20029;-81
2022/03/12 09:27:16;;;;;;;8.20;4.90;;;16.80;27.80;;;;;;5072238;28;20128;-80
2022/03/12 09:29:42;;;;;;;14.85;6.78;;;16.80;27.50;;;;;;5071915;28;20478;-80
2022/03/12 09:32:09;;;;;;;10.05;5.00;;;17.40;27.60;;;;;;5071917;28;20033;-82
2022/03/12 09:34:35;;;;;;;16.90;5.97;;;17.00;27.40;;;;;;5073320;28;20031;-80
2022/03/12 09:37:02;;;;;;;14.15;7.25;;;16.60;28.10;;;;;;5072210;28;20074;-80
2022/03/12 09:39:28;;;;;;;6.75;4.60;;;17.40;27.50;;;;;;5071876;28;20353;-80
2022/03/12 09:41:54;;;;;;;11.10;5.72;;;17.00;27.50;;;;;;5073670;28;20489;-81
2022/03/12 09:44:20;;;;;;;9.10;5.30;;;17.20;27.60;;;;;;5076185;28;20020;-79
2022/03/12 09:46:46;;;;;;;10.35;4.75;;;17.90;27.10;;;;;;5076899;28;20027;-80
2022/03/12 09:49:12;;;;;;;9.43;5.53;;;16.80;27.30;;;;;;5078219;28;20386;-79
2022/03/12 09:52:12;;;;;;;9.57;5.35;;;15.80;27.90;;;;;;5067682;27;1412434;-80
2022/03/12 09:54:38;;;;;;;7.82;4.65;;;17.20;27.90;;;;;;5091837;28;20023;-80
2022/03/12 09:57:04;;;;;;;10.10;4.72;;;18.40;27.00;;;;;;5111282;28;20039;-80
2022/03/12 09:59:30;;;;;;;11.65;4.90;;;20.30;26.60;;;;;;5093008;28;20023;-79
2022/03/12 10:01:56;;;;;;;13.85;5.47;;;20.10;26.80;;;;;;5111503;28;20071;-80
2022/03/12 10:04:22;;;;;;;13.13;5.30;;;20.10;26.80;;;;;;5092990;28;20091;-80
2022/03/12 10:06:48;;;;;;;10.63;5.65;;;21.90;26.50;;;;;;5092569;28;20505;-78
2022/03/12 10:09:17;;;;;;;10.95;6.80;;;21.60;25.90;;;;;;4385116;28;10000639;-80
2022/03/12 10:11:44;;;;;;;8.52;5.22;;;21.00;26.30;;;;;;5072595;28;20082;-81
2022/03/12 10:14:10;;;;;;;11.90;6.07;;;21.60;26.60;;;;;;5072946;28;20020;-80
2022/03/12 10:16:35;;;;;;;11.38;5.28;;;21.90;26.10;;;;;;5071261;28;20024;-80
2022/03/12 10:19:02;;;;;;;9.48;4.80;;;21.40;25.80;;;;;;5066199;28;20075;-83
2022/03/12 10:21:28;;;;;;;7.72;5.13;;;20.50;26.60;;;;;;5071809;28;20020;-81
2022/03/12 10:23:53;;;;;;;10.57;5.18;;;20.60;25.90;;;;;;5071898;28;20598;-78
2022/03/12 10:26:19;;;;;;;10.73;6.13;;;19.00;26.00;;;;;;4739820;28;10000545;-80
2022/03/12 10:28:45;;;;;;;19.77;6.70;;;19.30;26.60;;;;;;5075552;28;20032;-82
2022/03/12 10:31:12;;;;;;;17.77;6.43;;;20.10;26.70;;;;;;5070344;28;20040;-82
2022/03/12 10:33:39;;;;;;;16.65;6.07;;;21.40;25.80;;;;;;5088121;28;20065;-81
2022/03/12 10:36:13;;;;;;;11.10;6.00;;;20.90;25.60;;;;;;5088304;28;20030;-85
2022/03/12 10:38:50;;;;;;;96.70;8.60;;;21.40;26.40;;;;;;5070113;28;20193;-78
2022/03/12 10:41:17;;;;;;;69.18;8.30;;;22.70;26.40;;;;;;5069885;28;20028;-79
2022/03/12 10:43:48;;;;;;;199.95;14.40;;;23.40;25.70;;;;;;5088162;28;20021;-79
2022/03/12 10:46:28;;;;;;;195.02;25.75;;;23.20;25.50;;;;;;5069710;28;20024;-82
2022/03/12 10:48:59;;;;;;;46.95;8.30;;;22.60;26.00;;;;;;5069262;28;20460;-83
2022/03/12 10:51:37;;;;;;;24.20;6.03;;;21.50;26.00;;;;;;5075676;28;20044;-82
2022/03/12 10:54:15;;;;;;;15.02;5.60;;;21.00;26.20;;;;;;5068627;28;20028;-80
2022/03/12 10:56:46;;;;;;;31.67;6.90;;;21.70;26.20;;;;;;5069688;28;20373;-80
2022/03/12 10:59:14;;;;;;;27.77;6.32;;;22.80;25.70;;;;;;5086876;28;20028;-78
2022/03/12 11:01:49;;;;;;;12.05;5.72;;;22.60;26.10;;;;;;5066496;28;20497;-79
2022/03/12 11:04:34;;;;;;;13.35;5.28;;;19.40;25.60;;;;;;5056006;28;20032;-78
2022/03/12 11:07:23;;;;;;;7.75;4.38;;;17.60;26.40;;;;;;5036433;28;20037;-79
2022/03/12 11:09:49;;;;;;;10.38;5.43;;;17.30;26.30;;;;;;5054861;28;20028;-80
2022/03/12 11:12:30;;;;;;;10.75;5.85;;;18.20;26.70;;;;;;5053550;28;20143;-79
2022/03/12 11:15:04;;;;;;;10.02;5.25;;;19.40;26.20;;;;;;5054547;28;20531;-80
2022/03/12 11:17:38;;;;;;;17.50;6.18;;;17.90;26.10;;;;;;5053250;28;20029;-81
2022/03/12 11:20:05;;;;;;;15.85;6.65;;;17.40;26.80;;;;;;5036784;28;20057;-81
2022/03/12 11:22:31;;;;;;;12.40;6.10;;;16.30;27.30;;;;;;5036423;28;20104;-79
2022/03/12 11:24:57;;;;;;;11.40;5.05;;;14.90;28.00;;;;;;5056482;28;20377;-81
2022/03/12 11:27:31;;;;;;;10.10;5.20;;;13.60;28.50;;;;;;5056514;28;20541;-83
2022/03/12 11:30:00;;;;;;;9.20;5.45;;;12.90;28.40;;;;;;5056749;28;20048;-80
2022/03/12 11:32:30;;;;;;;13.82;5.30;;;13.10;28.80;;;;;;5056643;28;20368;-81
2022/03/12 11:35:18;;;;;;;10.18;4.95;;;13.40;28.90;;;;;;5045073;28;20029;-82
2022/03/12 11:37:44;;;;;;;10.80;6.80;;;13.60;29.00;;;;;;5037976;28;20022;-81
2022/03/12 11:40:18;;;;;;;32.28;7.32;;;13.30;27.90;;;;;;5056324;28;20028;-81
2022/03/12 11:42:44;;;;;;;13.55;5.78;;;12.70;28.60;;;;;;5056370;28;20078;-80
2022/03/12 11:45:15;;;;;;;8.80;5.05;;;12.70;29.00;;;;;;5073645;28;20510;-81
2022/03/12 11:47:43;;;;;;;38.75;6.75;;;13.10;27.90;;;;;;5047917;28;20025;-81
2022/03/12 11:50:22;;;;;;;17.95;6.10;;;13.10;28.10;;;;;;5035745;28;20112;-78
2022/03/12 11:52:47;;;;;;;81.97;9.10;;;13.00;28.00;;;;;;5054428;28;20037;-81
2022/03/12 11:55:21;;;;;;;277.77;20.67;;;13.30;28.00;;;;;;5058795;28;20017;-79
2022/03/12 11:57:48;;;;;;;189.95;15.23;;;13.60;28.20;;;;;;5073883;28;20028;-79
2022/03/12 12:00:24;;;;;;;40.92;7.38;;;12.50;27.70;;;;;;5049064;28;20032;-81
2022/03/12 12:02:52;;;;;;;11.88;5.28;;;12.60;27.80;;;;;;5073923;28;20459;-80
2022/03/12 12:05:19;;;;;;;17.55;5.43;;;12.70;28.10;;;;;;5055002;28;20031;-82
2022/03/12 12:07:48;;;;;;;81.90;9.73;;;12.80;27.60;;;;;;5046854;28;20145;-83
2022/03/12 12:10:24;;;;;;;26.40;8.20;;;13.10;27.40;;;;;;5055546;28;20033;-80
2022/03/12 12:12:51;;;;;;;28.85;7.18;;;12.30;27.90;;;;;;5073234;28;20067;-80
2022/03/12 12:15:25;;;;;;;20.38;6.03;;;12.50;28.50;;;;;;5071028;28;20048;-79
2022/03/12 12:17:52;;;;;;;10.52;5.60;;;12.80;28.20;;;;;;5055603;28;20036;-80
2022/03/12 12:20:21;;;;;;;19.23;6.03;;;12.80;27.50;;;;;;5055733;28;20058;-79
2022/03/12 12:22:47;;;;;;;24.30;6.78;;;12.80;27.90;;;;;;5055790;28;20429;-79
2022/03/12 12:25:15;;;;;;;10.30;6.07;;;12.60;27.90;;;;;;5055039;28;20441;-79
2022/03/12 12:27:44;;;;;;;12.15;6.05;;;12.70;27.30;;;;;;5072706;28;20493;-80
2022/03/12 12:30:37;;;;;;;13.10;6.05;;;12.90;28.50;;;;;;5055194;28;20035;-79
2022/03/12 12:33:18;;;;;;;17.95;6.65;;;12.30;28.10;;;;;;5035180;28;20390;-81
2022/03/12 12:36:08;;;;;;;9.23;5.70;;;12.60;27.90;;;;;;5065557;28;20058;-80
2022/03/12 12:38:34;;;;;;;10.43;5.73;;;12.80;28.00;;;;;;5052467;28;20101;-81
2022/03/12 12:41:03;;;;;;;8.57;5.50;;;12.60;28.10;;;;;;5045513;28;20070;-80
2022/03/12 12:43:45;;;;;;;10.02;5.32;;;12.80;28.00;;;;;;5055228;28;20119;-81
2022/03/12 12:46:17;;;;;;;11.07;6.10;;;13.20;27.50;;;;;;5054794;28;20115;-79
2022/03/12 12:48:54;;;;;;;15.10;7.45;;;13.30;27.70;;;;;;5045967;28;20123;-81
2022/03/12 12:51:27;;;;;;;15.15;7.28;;;13.20;27.80;;;;;;5031930;28;20080;-81
2022/03/12 12:53:55;;;;;;;17.63;7.22;;;12.70;28.20;;;;;;5043507;28;20592;-79